Create Custom Reports and Graphics: Custom Report

North/Central County Map

Map

15 Minute Data

South County Map

Map

15 Minute Data

Northern Sonoma County Latest

15 Stations

15 Minute Data | America/Los_Angeles
as of 6/13/21 11:33 PM PDT
Station Date Time Temp (°F) RH (%) Dew Pt (°F) Wind Spd (mph) Wind Dir (°) Wind Gust (mph) Latest Rain (In) Daily Rain (In) Daily Min Temp (°F) Daily Max Temp (°F)
Rockpile Lower (Cooley) 6/13/21 2315 61.8   0.4 88   5 58.2   1.1 2.1 W | 260 3.7   7.3 0.00 0.00 57.3   1.3 78.9   4.8
Rockpile Upper (Cooley) 6/13/21 2330 58.2   0.5 97   3 57.3   1.3 1.8 SW | 216 4.2   14.0 0.00 0.00 54.2   0.5 76.1   4.7
Cloverdale-East (Ranch 83) 6/13/21 2330 66.9   2.5 75   3 58.7   1.4 0.8 S | 172 2.6   0.8 0.00 0.00 58.6   2.7 85.0   2.7
Cloverdale-SE (Ranch 38) 6/13/21 2330 65.0   0.8 79   4 58.5   0.6 1.3 SSE | 163 2.2   3.0 0.00 0.00 60.2   2.6 86.5   1.1
Geyserville-North (Hoffman) 6/13/21 2330 64.4   1.2 80   0 57.9   1.1 0.6 W | 278 1.8   0.6 0.00 0.00 54.5   0.8 85.3   3.2
Geyserville (Ranch 3) 6/13/21 2330 66.0   1.8 77   5 58.4   0.0 1.1 W | 260 2.3   0.6 0.00 0.00 56.8   0.7 84.6   4.6
Geyserville-East (Ranch 40) 6/13/21 2330 64.7   0.4 81   3 58.7   0.6 1.6 W | 280 3.2   3.7 0.00 0.00 59.0   2.5 86.9   1.2
Geyserville-South (Nervo Station) 6/13/21 2330 65.0   0.6 78   3 58.1   0.6 0.8 WSW | 251 3.4   1.7 0.00 0.00 58.1   1.2 88.1   0.6
Lytton (River Oaks) 6/13/21 2330 63.0   0.2 85   4 58.5   1.5 1.6 SSE | 168 2.4   1.0 0.00 0.00 55.3   1.9 87.1   1.7
Jimtown-North (Piccolo-R15) 6/13/21 2330 64.8   0.1 75   4 56.9   1.4 1.2 S | 185 2.9   1.3 0.00 0.00 55.6   2.0 84.8   2.4
Jimtown-NE (Red Fan) 6/13/21 2330 65.3   0.4 83   3 59.9   1.6 3.3 S | 176 5.4   1.1 0.00 0.00 57.7   2.0 85.9   3.1
HWY 128/Chalk Hill Rd (Landslide) 6/13/21 2330 63.9   0.3 90   7 60.8   2.5 2.7 S | 183 7.3   5.5 0.00 0.00 56.8   3.0 84.6   3.0
Knights Valley (Bavarian Lion) 6/13/21 2330 64.1   3.0 84   0 59.4   3.0 1.2 W | 267 4.8   3.1 0.00 0.00 55.9   3.2 84.9   1.9
Upper Dry Creek Valley 6/13/21 2330 66.2   1.0 79   4 59.4   0.6 2.1 WSW | 256 3.9   2.5 0.00 0.00 59.3   1.7 84.5   3.2
Lower Dry Creek Valley 6/13/21 2330 64.8   0.0 84   4 59.8   1.4 2.7 SSE | 163 5.4   0.2 0.00 0.00 58.2   0.1 85.1   1.6
Max     66.9 97 60.8 3.3 - 7.3 0.00 0.00 60.2 88.1
Avg     64.3 82 58.7 1.7 - 3.7 0.00 - - -
Min     58.2 75 56.9 0.6 - 1.8 0.00 0.00 54.2 76.1

Central Sonoma County Latest

28 Stations

15 Minute Data | America/Los_Angeles
as of 6/13/21 11:33 PM PDT
Station Date Time Temp (°F) RH (%) Dew Pt (°F) Wind Spd (mph) Wind Dir (°) Wind Gust (mph) Latest Rain (In) Daily Rain (In) Daily Min Temp (°F) Daily Max Temp (°F)
Healdsburg-South (Sodini) 6/13/21 2330 63.2   0.2 87   5 59.4   1.5 2.3 SE | 136 5.4   0.7 0.00 0.00 57.8   2.4 84.8   2.5
Windsor-NW (Ranch 8) 6/13/21 2330 63.7   0.1 84   2 58.7   0.6 0.0 N | 0 0.0   0.0 0.00 0.00 58.5   0.5 83.4   3.4
Windsor-East (Ranch 16) 6/13/21 2330 63.9   1.1 87   3 60.0   1.9 2.6 SSE | 167 4.3   0.7 0.00 0.00 56.8   1.1 82.7   3.3
Mark West-North (Ranch 14) 6/13/21 2330 63.3   0.3 87   2 59.4   1.1 2.0 WNW | 300 4.6   0.0 0.00 0.00 58.9   2.9 81.9   2.5
Windsor-SE (Silk Rd) 6/13/21 2330 64.0   1.8 88   1 60.5   2.0 3.8 SSW | 213 7.7   1.8 0.00 0.00 54.5   1.9 80.8   2.8
Fulton-NW (Ranch 5) 6/13/21 2330 63.6   1.5 88   0 59.9   1.4 5.5 SSE | 165 8.5   4.8 0.00 0.00 56.5   0.1 81.5   2.8
Windsor-South (Laughlin Rd) 6/13/21 2330 64.3   2.7 - - - - - 0.00 0.00 56.3   1.8 82.5   2.0
Fulton-SE (Barnes Rd) 6/13/21 2330 63.7   0.4 86   1 59.3   0.7 3.9 SSW | 203 7.2   1.8 0.00 0.00 57.4   0.8 80.5   3.0
Fulton-SW (Ranch 21) 6/13/21 2330 63.5   2.2 86   2 59.4   1.5 2.7 SSW | 194 4.7   0.7 0.00 0.00 55.6   1.7 81.3   2.0
Santa Rosa-NW (Goldfields) 6/13/21 2330 63.6   1.8 87   2 59.8   1.2 2.9 SSE | 166 5.5   0.9 0.00 0.00 56.5   1.6 80.6   3.5
NW Santa Rosa (Piner Road) 6/13/21 2330 63.4   2.0 88   2 59.7   1.5 4.1 SSW | 213 6.8   2.8 0.00 0.00 53.8   3.4 82.6   0.3
River Rd South (Denner Ranch) 6/13/21 2330 63.0   2.4 88   1 59.3   2.5 4.9 S | 180 8.1   3.5 0.00 0.00 53.7   3.8 80.7   2.9
West Santa Rosa (Hawk's Roost) 6/13/21 2330 63.2   2.1 89   1 59.8   1.7 2.8 SSW | 192 6.1   2.5 0.00 0.00 54.2   3.8 80.5   2.5
Guerneville Rd (Prokopakis) 6/13/21 2330 63.4   1.4 90   2 60.6   2.2 - - - 0.00 0.00 52.0   5.0 80.1   2.6
Guerneville Rd West (Balletto) 6/13/21 2330 63.3   2.9 89   2 60.1   2.3 3.1 SW | 216 6.4   4.8 0.00 0.00 53.0   5.5 79.9   2.0
Guerneville Rd East (Rich Ranch) 6/13/21 2330 63.6   2.1 88   1 59.8   1.6 - - - - - 54.1   4.7 81.0   2.7
Occidental Rd (Sebastopol) 6/13/21 2330 62.2   2.4 100   0 62.2   2.4 2.7 SW | 215 6.1   4.2 0.00 0.00 51.8   7.0 78.9   3.8
Lower Westside Rd (Ranch 12) 6/13/21 2330 63.9   3.5 87   4 60.0   4.6 3.1 WSW | 258 6.3   6.3 0.00 0.00 53.2   3.3 81.0   3.1
Guerneville (Laughlin Rd) 6/13/21 2330 63.9   4.5 87   3 59.9   3.5 3.4 SSE | 157 5.6   3.6 0.00 0.00 59.7   5.7 79.3   1.4
Korbel (Winery) 6/13/21 2330 64.1   3.0 88   0 60.6   2.8 1.9 SW | 218 4.4   2.3 0.00 0.00 58.3   2.7 77.9   1.7
Forestville (Shone Farms) 6/13/21 2330 63.8   0.0 88   6 60.4   1.9 3.2 SW | 232 7.2   1.2 0.00 0.00 55.1   2.1 80.9   2.7
Forestville-NE (Ranch 30) 6/13/21 2330 63.4   0.0 89   6 60.2   1.8 3.2 SW | 228 6.5   1.1 0.00 0.00 53.8   1.2 80.7   4.1
Graton-West (Dutton Ranch) 6/13/21 2330 63.8   2.0 100   1 63.8   2.2 1.3 SSW | 205 3.1   2.2 0.00 0.00 53.8   2.5 80.5   2.2
Graton-South (Mill Station Rd) 6/13/21 2330 60.8   0.7 96   8 59.8   1.6 2.0 SSW | 212 4.3   3.0 0.00 0.00 51.9   5.0 75.6   2.9
Occidental (Horseshoe Bend) 6/13/21 2330 60.1   1.1 100   4 60.0   2.1 - - - - - 56.0   1.0 74.5   2.8
Sexton Valley (Jacqueline's Blk) 6/13/21 2330 60.7   1.9 96   9 59.4   0.8 0.3 E | 100 1.4   6.8 0.00 0.00 52.4   4.6 75.6   3.3
Sebastopol Hills (Burnside Rd) 6/13/21 2330 59.6   1.7 99   8 59.4   0.7 1.9 W | 267 5.0   3.6 0.00 0.00 57.2   0.7 72.9   3.6
Seaview/Fort Ross (Hirsch) 6/13/21 2330 57.8   0.0 97   0 57.0   0.0 0.4 WSW | 255 1.5   6.8 0.00 0.07 55.6   1.4 69.4   0.0
Max     64.3 100 63.8 5.5 - 8.5 0.00 0.07 59.7 84.8
Avg     62.9 90 59.9 2.7 - 5.3 0.00 - - -
Min     57.8 84 57.0 0.0 - 0.0 0.00 0.00 51.8 69.4

Southern Sonoma County Latest

17 Stations

15 Minute Data | America/Los_Angeles
as of 6/13/21 11:33 PM PDT
Station Date Time Temp (°F) RH (%) Dew Pt (°F) Wind Spd (mph) Wind Dir (°) Wind Gust (mph) Latest Rain (In) Daily Rain (In) Daily Min Temp (°F) Daily Max Temp (°F)
Upper Rincon Valley 6/13/21 2330 60.5   2.9 96   1 59.5   3.1 1.6 SSW | 212 4.6   2.9 0.00 0.00 57.6   4.3 77.5   3.5
Lower Bennett Valley 6/13/21 2330 61.9   2.0 93   1 59.8   1.8 3.4 SW | 224 7.1   2.1 0.00 0.00 55.4   0.2 77.4   3.7
Kenwood (Kunde) 6/13/21 2330 63.4   5.7 99   0 63.1   5.7 0.9 W | 269 5.5   2.3 0.00 0.00 53.4   1.0 80.6   3.8
Sonoma Valley (Bedrock) 6/13/21 2330 61.8   0.9 87   8 57.9   1.8 4.3 N | 350 8.4   1.7 0.00 0.00 60.3   2.9 82.8   1.8
Sonoma-West (Arnold) 6/13/21 2330 63.3   0.8 88   4 59.7   2.0 2.0 SW | 223 3.3   2.1 0.00 0.00 56.7   0.2 80.7   5.7
Sonoma Valley HS 6/13/21 2330 64.8   2.0 84   0 60.0   2.0 1.6 WSW | 250 3.9   0.7 0.00 0.00 59.0   1.8 79.9   3.3
Sonoma East (Bundschu01) 6/13/21 2330 64.6   2.1 85   1 60.1   1.6 4.0 W | 276 7.0   0.9 0.00 0.00 57.8   2.0 80.9   3.4
Schellville (Sasaki) 6/13/21 2330 64.6   2.9 87   3 60.6   1.8 1.5 SW | 236 5.1   5.0 0.00 0.00 59.1   0.3 84.3   2.7
Sonoma-SE (Napoli) 6/11/21 0845 61.1   3.2 43   15 38.7   4.6 2.0 SE | 137 4.8   3.7 0.00 0.00 39.8   2.1 61.5   2.7
Carneros (Ranch 71) 6/13/21 2330 62.5   2.1 92   2 60.0   1.6 8.4 WSW | 254 13.2   6.7 0.00 0.00 58.1   0.8 79.8   4.3
Carneros Upper (Ranch 81) 6/13/21 2330 62.5   1.9 90   0 59.6   1.7 8.1 WSW | 247 12.5   2.3 - - 57.9   0.1 79.9   5.3
Carneros Lower (Ranch 81) 6/13/21 2330 63.2   2.1 89   1 59.8   1.6 1.4 SSW | 192 3.2   2.4 0.00 0.00 57.0   1.0 84.0   3.7
Rohnert Park-West (Stony Point) 6/13/21 2330 61.0   1.0 97   4 60.0   2.2 2.1 WSW | 255 4.4   2.3 0.00 0.00 51.8   6.9 76.3   2.5
Penngrove (Asellus) 6/13/21 2330 62.3   2.2 94   1 60.5   2.0 3.0 WNW | 294 5.2   2.4 0.00 0.00 54.1   4.7 76.6   3.4
Roger's Creek (Ranch 50) 6/13/21 2330 60.2   1.5 100   2 60.2   2.0 8.0 W | 265 13.8   2.7 0.00 0.00 56.7   0.0 75.9   3.7
Petaluma (Ranch 10) 6/13/21 2330 63.1   1.5 91   2 60.5   2.1 3.1 NW | 312 7.5   3.7 0.00 0.00 58.5   1.0 79.1   3.5
Lakeville (Ranch 47) 6/13/21 2330 63.8   1.5 87   1 59.8   1.2 7.5 NW | 324 11.0   5.3 0.00 0.00 57.2   1.5 80.8   3.5
Max     64.8 100 63.1 8.4 - 13.8 0.00 0.00 60.3 84.3
Avg     62.7 91 60.1 3.8 - 7.2 0.00 - - -
Min     60.2 84 57.9 0.9 - 3.2 0.00 0.00 51.8 75.9

Latest Observations

Map

Hourly Data